Time;durP1;ratioP1;P1;durP2;ratioP2;P2;SDS_P1;SDS_P2;PMS_P1;PMS_P2;Temp;Humidity;BMP_temperature;BMP_pressure;BME280_temperature;BME280_humidity;BME280_pressure;Samples;Min_cycle;Max_cycle;Signal;HPM_P1;HPM_P2
2023/04/11 00:00:19;;;;;;;10.35;4.32;;;;;;;;;;6302781;22;20445;-79
2023/04/11 00:02:45;;;;;;;7.05;3.25;;;;;;;;;;6304758;22;20007;-79
2023/04/11 00:05:11;;;;;;;4.93;2.40;;;;;;;;;;6300453;22;20003;-79
2023/04/11 00:07:38;;;;;;;7.18;2.67;;;;;;;;;;6300935;22;20089;-80
2023/04/11 00:10:06;;;;;;;8.80;2.60;;;;;;;;;;6305757;22;20003;-80
2023/04/11 00:12:32;;;;;;;8.50;3.00;;;;;;;;;;6303482;22;20007;-79
2023/04/11 00:14:58;;;;;;;7.20;2.50;;;;;;;;;;6301631;22;20471;-80
2023/04/11 00:17:24;;;;;;;8.18;2.72;;;;;;;;;;6302374;22;20007;-79
2023/04/11 00:19:52;;;;;;;8.18;3.00;;;;;;;;;;6302738;22;20043;-80
2023/04/11 00:22:18;;;;;;;8.10;2.33;;;;;;;;;;6304751;22;20000;-79
2023/04/11 00:24:44;;;;;;;10.80;2.83;;;;;;;;;;6302536;22;20003;-79
2023/04/11 00:27:10;;;;;;;6.00;2.75;;;;;;;;;;6301878;22;20011;-79
2023/04/11 00:29:36;;;;;;;9.63;3.78;;;;;;;;;;6301874;22;20034;-80
2023/04/11 00:32:03;;;;;;;5.43;2.53;;;;;;;;;;6301794;22;20010;-80
2023/04/11 00:34:29;;;;;;;8.38;2.45;;;;;;;;;;6304078;22;20442;-79
2023/04/11 00:36:55;;;;;;;7.45;2.30;;;;;;;;;;6303215;22;20007;-79
2023/04/11 00:39:21;;;;;;;13.32;3.45;;;;;;;;;;6304939;22;20031;-80
2023/04/11 00:41:47;;;;;;;9.00;2.83;;;;;;;;;;6302697;22;20006;-79
2023/04/11 00:44:14;;;;;;;5.05;2.28;;;;;;;;;;6301958;22;20330;-80
2023/04/11 00:46:41;;;;;;;9.32;2.60;;;;;;;;;;6300062;22;20007;-79
2023/04/11 00:49:07;;;;;;;8.88;2.70;;;;;;;;;;6298359;22;20008;-79
2023/04/11 00:51:34;;;;;;;6.13;2.80;;;;;;;;;;6300605;22;20006;-79
2023/04/11 00:54:00;;;;;;;8.48;2.58;;;;;;;;;;6301757;22;20031;-79
2023/04/11 00:56:26;;;;;;;9.93;2.97;;;;;;;;;;6299550;22;20717;-79
2023/04/11 00:58:53;;;;;;;6.78;3.10;;;;;;;;;;6309745;22;20007;-79
2023/04/11 01:01:22;;;;;;;7.93;2.60;;;;;;;;;;6305493;22;20374;-79
2023/04/11 01:03:48;;;;;;;7.45;3.20;;;;;;;;;;6302141;22;20010;-79
2023/04/11 01:06:16;;;;;;;7.53;3.05;;;;;;;;;;6302912;22;20811;-80
2023/04/11 01:08:43;;;;;;;7.07;3.00;;;;;;;;;;6303006;22;20076;-79
2023/04/11 01:11:11;;;;;;;6.05;2.60;;;;;;;;;;6303470;22;20342;-79
2023/04/11 01:13:39;;;;;;;16.92;3.15;;;;;;;;;;6302680;22;19999;-80
2023/04/11 01:16:06;;;;;;;7.35;2.30;;;;;;;;;;6302229;22;20754;-79
2023/04/11 01:18:32;;;;;;;7.80;2.95;;;;;;;;;;6305173;22;20003;-79
2023/04/11 01:21:00;;;;;;;5.90;3.13;;;;;;;;;;6303760;22;20007;-78
2023/04/11 01:23:27;;;;;;;8.65;2.42;;;;;;;;;;6302522;22;20041;-79
2023/04/11 01:25:53;;;;;;;8.57;2.40;;;;;;;;;;6300457;22;20003;-78
2023/04/11 01:28:19;;;;;;;12.38;3.10;;;;;;;;;;6300916;22;20466;-80
2023/04/11 01:30:46;;;;;;;5.82;2.67;;;;;;;;;;6301586;22;19996;-79
2023/04/11 01:33:13;;;;;;;9.00;2.50;;;;;;;;;;6310019;22;20014;-79
2023/04/11 01:35:39;;;;;;;8.18;3.47;;;;;;;;;;6302211;22;20012;-79
2023/04/11 01:38:05;;;;;;;8.93;3.10;;;;;;;;;;6301616;22;20045;-79
2023/04/11 01:40:31;;;;;;;11.75;2.28;;;;;;;;;;6299571;22;20024;-80
2023/04/11 01:42:58;;;;;;;10.02;2.70;;;;;;;;;;6298943;22;20007;-80
2023/04/11 01:45:27;;;;;;;8.32;2.60;;;;;;;;;;6300910;22;20027;-79
2023/04/11 01:47:54;;;;;;;9.57;2.83;;;;;;;;;;6300437;22;20188;-78
2023/04/11 01:50:20;;;;;;;9.45;3.05;;;;;;;;;;6300478;22;19999;-79
2023/04/11 01:52:47;;;;;;;4.88;2.30;;;;;;;;;;6300367;22;19999;-79
2023/04/11 01:55:13;;;;;;;11.43;3.90;;;;;;;;;;6298612;22;20061;-78
2023/04/11 01:57:39;;;;;;;7.47;2.53;;;;;;;;;;6300972;22;20046;-79
2023/04/11 02:00:07;;;;;;;7.57;2.53;;;;;;;;;;6299793;22;20003;-79
2023/04/11 02:02:33;;;;;;;6.60;2.83;;;;;;;;;;6299982;22;20007;-79
2023/04/11 02:04:59;;;;;;;6.07;2.22;;;;;;;;;;6299470;22;20007;-78
2023/04/11 02:07:26;;;;;;;7.25;2.50;;;;;;;;;;6296562;22;20220;-79
2023/04/11 02:09:52;;;;;;;7.68;2.75;;;;;;;;;;6296916;22;20003;-78
2023/04/11 02:12:18;;;;;;;4.50;2.50;;;;;;;;;;6297775;22;20384;-80
2023/04/11 02:14:45;;;;;;;8.95;2.60;;;;;;;;;;6298948;22;20026;-80
2023/04/11 02:17:12;;;;;;;8.45;2.70;;;;;;;;;;6297332;22;20082;-79
2023/04/11 02:19:40;;;;;;;6.78;2.55;;;;;;;;;;6299967;22;20007;-79
2023/04/11 02:22:09;;;;;;;8.25;3.75;;;;;;;;;;6298428;22;20087;-79
2023/04/11 02:24:35;;;;;;;7.13;2.28;;;;;;;;;;6299702;22;20385;-79
2023/04/11 02:27:01;;;;;;;9.48;2.60;;;;;;;;;;6298203;22;20014;-79
2023/04/11 02:29:28;;;;;;;5.13;2.20;;;;;;;;;;6300188;22;20006;-80
2023/04/11 02:31:54;;;;;;;4.88;2.83;;;;;;;;;;6299204;22;20003;-80
2023/04/11 02:34:20;;;;;;;6.63;2.60;;;;;;;;;;6297384;22;20015;-80
2023/04/11 02:36:47;;;;;;;9.40;2.60;;;;;;;;;;6300190;22;20003;-80
2023/04/11 02:39:13;;;;;;;6.88;2.22;;;;;;;;;;6301446;22;20006;-80
2023/04/11 02:41:40;;;;;;;4.72;2.15;;;;;;;;;;6299717;22;20014;-79
2023/04/11 02:44:06;;;;;;;7.80;2.47;;;;;;;;;;6303298;22;19995;-80
2023/04/11 02:46:32;;;;;;;6.45;2.55;;;;;;;;;;6302128;22;20087;-79
2023/04/11 02:48:58;;;;;;;3.97;2.80;;;;;;;;;;6299160;22;20476;-79
2023/04/11 02:51:25;;;;;;;9.40;2.83;;;;;;;;;;6298757;22;20030;-79
2023/04/11 02:53:52;;;;;;;8.63;2.60;;;;;;;;;;6300723;22;20003;-78
2023/04/11 02:56:18;;;;;;;4.93;2.42;;;;;;;;;;6298694;22;20007;-79
2023/04/11 02:58:44;;;;;;;4.53;2.78;;;;;;;;;;6295499;22;20110;-78
2023/04/11 03:01:11;;;;;;;7.70;2.30;;;;;;;;;;6299023;22;19999;-79
2023/04/11 03:03:37;;;;;;;6.78;2.65;;;;;;;;;;6296591;22;20011;-79
2023/04/11 03:06:05;;;;;;;7.55;2.63;;;;;;;;;;6299040;22;20453;-79
2023/04/11 03:08:32;;;;;;;7.55;2.70;;;;;;;;;;6298981;22;19999;-79
2023/04/11 03:10:58;;;;;;;7.10;2.30;;;;;;;;;;6297052;22;20029;-79
2023/04/11 03:13:27;;;;;;;7.85;2.50;;;;;;;;;;6296793;22;20011;-79
2023/04/11 03:15:53;;;;;;;5.18;2.60;;;;;;;;;;6296035;22;20015;-78
2023/04/11 03:18:21;;;;;;;3.63;1.98;;;;;;;;;;6298244;22;20007;-79
2023/04/11 03:20:47;;;;;;;6.72;2.65;;;;;;;;;;6299033;22;20010;-79
2023/04/11 03:23:14;;;;;;;5.10;2.40;;;;;;;;;;6298823;22;20404;-78
2023/04/11 03:25:43;;;;;;;6.57;2.22;;;;;;;;;;6297058;22;20011;-78
2023/04/11 03:28:09;;;;;;;7.88;2.38;;;;;;;;;;6299001;22;20122;-79
2023/04/11 03:30:39;;;;;;;7.70;2.50;;;;;;;;;;6301186;22;20010;-79
2023/04/11 03:33:05;;;;;;;6.72;2.38;;;;;;;;;;6299457;22;20090;-79
2023/04/11 03:35:31;;;;;;;6.05;2.30;;;;;;;;;;6297918;22;20019;-80
2023/04/11 03:37:57;;;;;;;6.55;1.88;;;;;;;;;;6301744;22;20591;-80
2023/04/11 03:40:24;;;;;;;9.90;2.25;;;;;;;;;;6301525;22;20003;-79
2023/04/11 03:42:50;;;;;;;3.13;2.28;;;;;;;;;;6299103;22;20386;-78
2023/04/11 03:45:16;;;;;;;6.28;2.17;;;;;;;;;;6305655;22;19995;-79
2023/04/11 03:47:43;;;;;;;5.18;2.55;;;;;;;;;;6301266;22;20095;-79
2023/04/11 03:50:09;;;;;;;9.25;3.35;;;;;;;;;;6306957;22;19999;-79
2023/04/11 03:52:35;;;;;;;8.10;2.35;;;;;;;;;;6305068;22;20535;-78
2023/04/11 03:55:02;;;;;;;4.43;1.92;;;;;;;;;;6302095;22;20040;-78
2023/04/11 03:57:28;;;;;;;6.03;2.22;;;;;;;;;;6302055;22;20032;-79
2023/04/11 03:59:58;;;;;;;3.20;2.03;;;;;;;;;;6299324;22;20273;-79
2023/04/11 04:02:24;;;;;;;7.78;2.67;;;;;;;;;;6302819;22;20007;-80
2023/04/11 04:04:57;;;;;;;10.30;3.08;;;;;;;;;;6301286;22;20007;-80
2023/04/11 04:07:24;;;;;;;9.50;2.40;;;;;;;;;;6303262;22;20003;-80
2023/04/11 04:09:50;;;;;;;6.72;2.20;;;;;;;;;;6301802;22;20117;-79
2023/04/11 04:12:19;;;;;;;3.33;1.85;;;;;;;;;;6302365;22;20003;-79
2023/04/11 04:14:46;;;;;;;6.22;2.15;;;;;;;;;;6299350;22;20003;-79
2023/04/11 04:17:13;;;;;;;7.93;2.45;;;;;;;;;;6301518;22;20426;-79
2023/04/11 04:19:39;;;;;;;6.55;2.65;;;;;;;;;;6301398;22;20034;-80
2023/04/11 04:22:10;;;;;;;6.03;2.42;;;;;;;;;;6301107;22;20014;-78
2023/04/11 04:24:38;;;;;;;9.20;2.30;;;;;;;;;;6299605;22;20007;-79
2023/04/11 04:27:07;;;;;;;9.02;2.33;;;;;;;;;;6299971;22;20007;-79
2023/04/11 04:29:37;;;;;;;8.25;2.45;;;;;;;;;;6302928;22;20014;-79
2023/04/11 04:32:09;;;;;;;2.95;2.20;;;;;;;;;;6300862;22;20033;-79
2023/04/11 04:34:45;;;;;;;9.20;2.38;;;;;;;;;;6300054;22;20007;-79
2023/04/11 04:37:20;;;;;;;4.88;2.58;;;;;;;;;;6301095;22;20007;-79
2023/04/11 04:39:49;;;;;;;8.68;2.67;;;;;;;;;;6301489;22;20010;-79
2023/04/11 04:42:15;;;;;;;5.47;2.13;;;;;;;;;;6300345;22;20023;-79
2023/04/11 04:44:42;;;;;;;9.15;2.85;;;;;;;;;;6298799;22;20053;-79
2023/04/11 04:47:08;;;;;;;9.27;2.05;;;;;;;;;;6301233;22;20011;-79
2023/04/11 04:49:34;;;;;;;3.85;1.92;;;;;;;;;;6302713;22;20075;-80
2023/04/11 04:52:00;;;;;;;3.33;2.25;;;;;;;;;;6301832;22;20031;-79
2023/04/11 04:54:27;;;;;;;5.65;2.38;;;;;;;;;;6302533;22;19992;-79
2023/04/11 04:56:53;;;;;;;6.55;2.40;;;;;;;;;;6301805;22;20088;-80
2023/04/11 04:59:19;;;;;;;4.18;2.28;;;;;;;;;;6299459;22;20082;-80
2023/04/11 05:01:45;;;;;;;5.65;2.10;;;;;;;;;;6301711;22;20003;-79
2023/04/11 05:04:11;;;;;;;7.22;2.13;;;;;;;;;;6301933;22;20003;-79
2023/04/11 05:06:37;;;;;;;5.80;2.40;;;;;;;;;;6303097;22;20003;-79
2023/04/11 05:09:05;;;;;;;3.38;2.17;;;;;;;;;;6299710;22;20022;-79
2023/04/11 05:11:31;;;;;;;5.75;2.30;;;;;;;;;;6298739;22;20334;-78
2023/04/11 05:13:57;;;;;;;6.97;2.25;;;;;;;;;;6296689;22;20003;-79
2023/04/11 05:16:23;;;;;;;4.63;1.88;;;;;;;;;;6303098;22;19999;-80
2023/04/11 05:18:49;;;;;;;5.93;2.10;;;;;;;;;;6297613;22;20004;-79
2023/04/11 05:21:15;;;;;;;6.75;3.92;;;;;;;;;;6301239;22;20003;-79
2023/04/11 05:23:42;;;;;;;4.88;2.30;;;;;;;;;;6301288;22;20003;-79
2023/04/11 05:26:08;;;;;;;6.95;2.42;;;;;;;;;;6304502;22;20074;-79
2023/04/11 05:28:34;;;;;;;5.63;2.65;;;;;;;;;;6305782;22;20031;-80
2023/04/11 05:31:01;;;;;;;6.55;2.08;;;;;;;;;;6300418;22;20006;-78
2023/04/11 05:33:27;;;;;;;7.15;2.35;;;;;;;;;;6301094;22;20003;-79
2023/04/11 05:35:53;;;;;;;4.40;2.15;;;;;;;;;;6301818;22;20026;-80
2023/04/11 05:38:20;;;;;;;7.47;2.00;;;;;;;;;;6297678;22;20013;-79
2023/04/11 05:40:46;;;;;;;6.93;2.25;;;;;;;;;;6299459;22;20007;-79
2023/04/11 05:43:13;;;;;;;3.00;1.88;;;;;;;;;;6300417;22;20052;-80
2023/04/11 05:45:46;;;;;;;6.38;2.22;;;;;;;;;;6300078;22;20086;-79
2023/04/11 05:48:13;;;;;;;7.10;2.20;;;;;;;;;;6300750;22;20057;-79
2023/04/11 05:50:39;;;;;;;7.22;2.83;;;;;;;;;;6303520;22;19996;-79
2023/04/11 05:53:06;;;;;;;6.43;2.47;;;;;;;;;;6301893;22;20338;-79
2023/04/11 05:55:32;;;;;;;5.55;2.05;;;;;;;;;;6301272;22;19999;-79
2023/04/11 05:57:58;;;;;;;8.85;2.88;;;;;;;;;;6299770;22;19999;-81
2023/04/11 06:00:25;;;;;;;4.82;2.20;;;;;;;;;;6301285;22;20073;-79
2023/04/11 06:02:51;;;;;;;5.95;2.00;;;;;;;;;;6298355;22;20017;-79
2023/04/11 06:05:20;;;;;;;3.78;2.25;;;;;;;;;;6299548;22;20010;-79
2023/04/11 06:07:46;;;;;;;3.47;2.00;;;;;;;;;;6298987;22;20446;-78
2023/04/11 06:10:12;;;;;;;3.80;2.55;;;;;;;;;;6298607;22;20003;-79
2023/04/11 06:12:38;;;;;;;5.03;2.50;;;;;;;;;;6299780;22;19999;-79
2023/04/11 06:15:05;;;;;;;3.10;1.95;;;;;;;;;;6303798;22;20000;-80
2023/04/11 06:17:31;;;;;;;4.13;2.05;;;;;;;;;;6302186;22;20027;-80
2023/04/11 06:19:57;;;;;;;5.30;1.95;;;;;;;;;;6300671;22;20014;-79
2023/04/11 06:22:23;;;;;;;3.97;1.83;;;;;;;;;;6299911;22;20331;-80
2023/04/11 06:24:49;;;;;;;6.22;2.10;;;;;;;;;;6303449;22;20003;-79
2023/04/11 06:27:16;;;;;;;5.22;2.13;;;;;;;;;;6298024;22;20068;-79
2023/04/11 06:29:45;;;;;;;4.30;1.70;;;;;;;;;;6297326;22;20000;-79
2023/04/11 06:32:12;;;;;;;7.15;2.53;;;;;;;;;;6299503;22;20057;-80
2023/04/11 06:34:38;;;;;;;7.20;2.50;;;;;;;;;;6302556;22;20030;-79
2023/04/11 06:37:06;;;;;;;4.47;2.00;;;;;;;;;;6300848;22;20030;-78
2023/04/11 06:39:33;;;;;;;7.35;2.90;;;;;;;;;;6297844;22;20066;-78
2023/04/11 06:42:02;;;;;;;9.95;2.38;;;;;;;;;;6297747;22;20003;-78
2023/04/11 06:44:28;;;;;;;6.78;2.10;;;;;;;;;;6299496;22;20007;-78
2023/04/11 06:46:55;;;;;;;3.53;2.03;;;;;;;;;;6298317;22;20003;-78
2023/04/11 06:49:22;;;;;;;7.72;2.28;;;;;;;;;;6299689;22;20061;-78
2023/04/11 06:51:49;;;;;;;4.88;2.28;;;;;;;;;;6297770;22;20445;-78
2023/04/11 06:54:15;;;;;;;4.90;2.33;;;;;;;;;;6297970;22;19999;-78
2023/04/11 06:56:42;;;;;;;6.50;2.58;;;;;;;;;;6296489;22;20007;-79
2023/04/11 06:59:08;;;;;;;8.10;2.22;;;;;;;;;;6300042;22;20430;-79
2023/04/11 07:01:36;;;;;;;4.10;2.13;;;;;;;;;;6298045;22;20017;-79
2023/04/11 07:04:06;;;;;;;5.07;1.92;;;;;;;;;;6302029;22;20082;-79
2023/04/11 07:06:34;;;;;;;7.85;2.33;;;;;;;;;;6300314;22;20310;-79
2023/04/11 07:09:00;;;;;;;3.22;1.80;;;;;;;;;;6299845;22;20533;-79
2023/04/11 07:11:27;;;;;;;3.92;2.05;;;;;;;;;;6302590;22;20007;-79
2023/04/11 07:13:54;;;;;;;3.60;1.80;;;;;;;;;;6301545;22;20003;-79
2023/04/11 07:16:20;;;;;;;7.82;2.03;;;;;;;;;;6298309;22;20453;-79
2023/04/11 07:18:46;;;;;;;3.67;2.03;;;;;;;;;;6300830;22;19999;-79
2023/04/11 07:21:12;;;;;;;5.03;2.08;;;;;;;;;;6303392;22;20082;-79
2023/04/11 07:23:39;;;;;;;3.75;1.65;;;;;;;;;;6305230;22;19999;-79
2023/04/11 07:26:07;;;;;;;5.15;2.03;;;;;;;;;;6303046;22;20034;-78
2023/04/11 07:28:36;;;;;;;7.15;1.75;;;;;;;;;;6303612;22;20004;-79
2023/04/11 07:31:02;;;;;;;5.43;2.58;;;;;;;;;;6302312;22;20073;-79
2023/04/11 07:33:28;;;;;;;6.90;2.78;;;;;;;;;;6304234;22;20392;-79
2023/04/11 07:35:54;;;;;;;7.10;2.78;;;;;;;;;;6303995;22;20033;-79
2023/04/11 07:38:28;;;;;;;5.72;2.05;;;;;;;;;;6306337;22;20011;-78
2023/04/11 07:40:55;;;;;;;4.53;1.98;;;;;;;;;;6302629;22;20026;-79
2023/04/11 07:43:21;;;;;;;8.70;2.00;;;;;;;;;;6308352;22;20008;-79
2023/04/11 07:45:47;;;;;;;3.47;2.00;;;;;;;;;;6298981;22;19999;-78
2023/04/11 07:48:13;;;;;;;3.72;2.35;;;;;;;;;;6302135;22;19996;-78
2023/04/11 07:50:39;;;;;;;4.78;2.55;;;;;;;;;;6298577;22;19996;-78
2023/04/11 07:53:06;;;;;;;3.47;1.88;;;;;;;;;;6304385;22;20000;-80
2023/04/11 07:55:32;;;;;;;6.88;1.92;;;;;;;;;;6307360;22;20002;-80
2023/04/11 07:57:58;;;;;;;6.40;2.53;;;;;;;;;;6304412;22;20010;-79
2023/04/11 08:00:25;;;;;;;4.15;2.28;;;;;;;;;;6307070;22;20228;-79
2023/04/11 08:02:51;;;;;;;5.22;2.30;;;;;;;;;;6306868;22;20013;-79
2023/04/11 08:05:18;;;;;;;4.30;2.20;;;;;;;;;;6303210;22;20417;-79
2023/04/11 08:07:44;;;;;;;4.65;1.80;;;;;;;;;;6301995;22;20089;-79
2023/04/11 08:10:10;;;;;;;6.93;3.50;;;;;;;;;;6306143;22;19995;-78
2023/04/11 08:12:36;;;;;;;5.47;1.90;;;;;;;;;;6302899;22;20456;-79
2023/04/11 08:15:02;;;;;;;8.02;2.05;;;;;;;;;;6304219;22;19999;-78
2023/04/11 08:17:28;;;;;;;5.57;2.65;;;;;;;;;;6305936;22;20010;-79
2023/04/11 08:19:57;;;;;;;3.05;1.90;;;;;;;;;;6309728;22;20035;-80
2023/04/11 08:22:23;;;;;;;6.10;2.00;;;;;;;;;;6310252;22;20003;-80
2023/04/11 08:24:50;;;;;;;5.45;2.10;;;;;;;;;;6309121;22;20003;-80
2023/04/11 08:27:16;;;;;;;6.95;1.83;;;;;;;;;;6308597;22;20010;-80
2023/04/11 08:29:42;;;;;;;5.38;1.80;;;;;;;;;;6309279;22;20006;-79
2023/04/11 08:32:08;;;;;;;7.32;2.35;;;;;;;;;;6306202;22;20049;-79
2023/04/11 08:34:34;;;;;;;8.23;2.72;;;;;;;;;;6305096;22;20007;-80
2023/04/11 08:37:00;;;;;;;8.98;3.63;;;;;;;;;;6305673;22;20023;-80
2023/04/11 08:39:26;;;;;;;5.72;2.47;;;;;;;;;;6302326;22;20003;-79
2023/04/11 08:41:52;;;;;;;8.65;2.33;;;;;;;;;;6306002;22;20018;-80
2023/04/11 08:44:18;;;;;;;6.85;2.72;;;;;;;;;;6306158;22;20545;-79
2023/04/11 08:46:44;;;;;;;6.20;2.65;;;;;;;;;;6306632;22;20014;-80
2023/04/11 08:49:10;;;;;;;6.07;2.60;;;;;;;;;;6306445;22;20014;-80
2023/04/11 08:51:38;;;;;;;6.65;2.35;;;;;;;;;;6309844;22;20034;-80
2023/04/11 08:54:05;;;;;;;5.88;2.75;;;;;;;;;;6306473;22;20001;-82
2023/04/11 08:56:31;;;;;;;5.00;2.00;;;;;;;;;;6304715;22;20007;-79
2023/04/11 08:58:57;;;;;;;6.63;2.00;;;;;;;;;;6302976;22;20006;-80
2023/04/11 09:01:25;;;;;;;11.25;2.47;;;;;;;;;;6307369;22;20172;-80
2023/04/11 09:03:51;;;;;;;9.70;2.80;;;;;;;;;;6307174;22;20024;-80
2023/04/11 09:06:18;;;;;;;8.77;2.70;;;;;;;;;;6307221;22;20087;-80
2023/04/11 09:08:44;;;;;;;4.55;2.20;;;;;;;;;;6307422;22;20011;-79
2023/04/11 09:11:10;;;;;;;8.95;2.22;;;;;;;;;;6305473;22;20470;-79
2023/04/11 09:13:36;;;;;;;7.63;2.60;;;;;;;;;;6305761;22;20011;-79
2023/04/11 09:16:05;;;;;;;5.55;2.83;;;;;;;;;;6309608;22;20601;-80
2023/04/11 09:18:36;;;;;;;7.32;2.60;;;;;;;;;;6314003;22;20030;-81
2023/04/11 09:21:04;;;;;;;10.80;2.38;;;;;;;;;;6313520;22;20553;-79
2023/04/11 09:23:30;;;;;;;6.25;2.20;;;;;;;;;;6321818;22;20011;-79
2023/04/11 09:25:57;;;;;;;4.05;2.47;;;;;;;;;;6313305;22;20068;-80
2023/04/11 09:28:24;;;;;;;10.82;2.30;;;;;;;;;;6308821;22;20007;-79
2023/04/11 09:30:57;;;;;;;7.28;2.95;;;;;;;;;;6316683;22;20458;-81
2023/04/11 09:33:24;;;;;;;7.82;2.40;;;;;;;;;;6316923;22;20003;-79
2023/04/11 09:35:51;;;;;;;7.40;3.13;;;;;;;;;;6306543;22;20106;-79
2023/04/11 09:38:27;;;;;;;22.15;3.95;;;;;;;;;;6307123;22;19999;-80
2023/04/11 09:40:54;;;;;;;6.28;2.25;;;;;;;;;;6310187;22;20038;-79
2023/04/11 09:43:20;;;;;;;7.47;2.75;;;;;;;;;;6302922;22;20007;-79
2023/04/11 09:45:46;;;;;;;5.13;2.35;;;;;;;;;;6304876;22;20386;-79
2023/04/11 09:48:13;;;;;;;8.45;2.60;;;;;;;;;;6309962;22;20002;-80
2023/04/11 09:50:39;;;;;;;4.95;2.28;;;;;;;;;;6311144;22;20048;-79
2023/04/11 09:53:08;;;;;;;5.60;2.10;;;;;;;;;;6312157;22;20002;-80
2023/04/11 09:55:38;;;;;;;6.50;2.60;;;;;;;;;;6312975;22;20477;-79
2023/04/11 09:58:05;;;;;;;7.07;2.30;;;;;;;;;;6309478;22;19999;-79
2023/04/11 10:00:31;;;;;;;7.82;2.40;;;;;;;;;;6310833;22;19999;-80
2023/04/11 10:02:58;;;;;;;6.20;3.17;;;;;;;;;;6312755;22;20029;-80
2023/04/11 10:05:25;;;;;;;6.95;2.20;;;;;;;;;;6312354;22;19995;-80
2023/04/11 10:08:11;;;;;;;4.82;1.90;;;;;;;;;;6313869;22;20003;-80
2023/04/11 10:10:37;;;;;;;3.95;2.67;;;;;;;;;;6312697;22;20041;-80
2023/04/11 10:13:23;;;;;;;3.10;2.00;;;;;;;;;;6311521;22;20002;-84
2023/04/11 10:16:07;;;;;;;3.53;1.80;;;;;;;;;;6310970;22;20027;-80
2023/04/11 10:18:34;;;;;;;5.72;2.28;;;;;;;;;;6309664;22;20030;-81
2023/04/11 10:21:01;;;;;;;3.45;2.55;;;;;;;;;;6309597;22;20003;-80
2023/04/11 10:23:27;;;;;;;1.90;1.60;;;;;;;;;;6306884;22;19999;-80
2023/04/11 10:26:00;;;;;;;6.28;2.55;;;;;;;;;;6307169;22;20369;-80
2023/04/11 10:28:37;;;;;;;6.95;2.03;;;;;;;;;;6299228;22;20042;-78
2023/04/11 10:31:03;;;;;;;7.72;2.88;;;;;;;;;;6301507;22;20346;-78
2023/04/11 10:33:30;;;;;;;3.55;1.95;;;;;;;;;;6301393;22;20023;-78
2023/04/11 10:36:01;;;;;;;4.13;1.88;;;;;;;;;;6299730;22;20416;-79
2023/04/11 10:38:36;;;;;;;9.57;2.05;;;;;;;;;;6304071;22;19999;-78
2023/04/11 10:41:18;;;;;;;7.50;2.25;;;;;;;;;;6309199;22;19996;-79
2023/04/11 10:43:45;;;;;;;2.83;2.03;;;;;;;;;;6305608;22;20283;-79
2023/04/11 10:46:17;;;;;;;4.13;1.80;;;;;;;;;;6308091;22;20003;-78
2023/04/11 10:48:56;;;;;;;6.03;2.00;;;;;;;;;;6304023;22;19999;-78
2023/04/11 10:51:26;;;;;;;5.97;1.85;;;;;;;;;;6304715;22;20334;-78
2023/04/11 10:53:52;;;;;;;5.70;2.42;;;;;;;;;;6305084;22;19996;-79
2023/04/11 10:56:37;;;;;;;4.05;2.00;;;;;;;;;;6308312;22;20004;-78
2023/04/11 10:59:03;;;;;;;3.45;1.60;;;;;;;;;;6303652;22;20003;-79
2023/04/11 11:01:30;;;;;;;4.00;1.85;;;;;;;;;;6304484;22;20007;-78
2023/04/11 11:03:56;;;;;;;3.03;1.65;;;;;;;;;;6302263;22;20027;-78
2023/04/11 11:06:22;;;;;;;4.35;1.55;;;;;;;;;;6303931;22;20082;-78
2023/04/11 11:08:48;;;;;;;2.10;1.95;;;;;;;;;;6306445;22;20169;-78
2023/04/11 11:11:15;;;;;;;3.88;1.50;;;;;;;;;;6305068;22;20025;-79
2023/04/11 11:13:46;;;;;;;2.60;1.67;;;;;;;;;;6305551;22;20083;-79
2023/04/11 11:16:16;;;;;;;3.40;1.90;;;;;;;;;;6302230;22;20098;-77
2023/04/11 11:18:45;;;;;;;1.90;1.67;;;;;;;;;;6305401;22;19999;-78
2023/04/11 11:21:13;;;;;;;4.22;2.20;;;;;;;;;;6317613;22;20055;-79
2023/04/11 11:23:40;;;;;;;2.08;1.88;;;;;;;;;;6313019;22;20028;-78
2023/04/11 11:26:06;;;;;;;1.48;1.30;;;;;;;;;;6313011;22;20003;-77
2023/04/11 11:28:32;;;;;;;4.47;2.22;;;;;;;;;;6307648;22;20022;-79
2023/04/11 11:30:59;;;;;;;4.78;2.10;;;;;;;;;;6306675;22;19999;-78
2023/04/11 11:33:26;;;;;;;2.03;1.70;;;;;;;;;;6304157;22;20011;-78
2023/04/11 11:35:54;;;;;;;5.18;2.67;;;;;;;;;;6304687;22;20426;-78
2023/04/11 11:38:21;;;;;;;4.13;2.28;;;;;;;;;;6305283;22;20003;-77
2023/04/11 11:40:48;;;;;;;2.00;1.80;;;;;;;;;;6301797;22;19995;-78
2023/04/11 11:43:15;;;;;;;2.40;1.55;;;;;;;;;;6306614;22;20011;-77
2023/04/11 11:45:41;;;;;;;1.65;1.55;;;;;;;;;;6316043;22;20003;-79
2023/04/11 11:48:08;;;;;;;1.60;1.50;;;;;;;;;;6313660;22;20038;-78
2023/04/11 11:50:37;;;;;;;5.57;1.50;;;;;;;;;;6304413;22;20236;-77
2023/04/11 11:53:14;;;;;;;1.50;1.30;;;;;;;;;;6312369;22;20004;-78
2023/04/11 11:55:41;;;;;;;2.30;1.50;;;;;;;;;;6308483;22;20413;-78
2023/04/11 11:58:07;;;;;;;1.33;1.33;;;;;;;;;;6305270;22;19999;-78
2023/04/11 12:00:38;;;;;;;1.88;1.45;;;;;;;;;;6299119;22;20003;-78
2023/04/11 12:03:05;;;;;;;2.72;1.52;;;;;;;;;;6309313;22;20027;-78
2023/04/11 12:05:32;;;;;;;3.40;1.98;;;;;;;;;;6306326;22;20003;-79
2023/04/11 12:08:00;;;;;;;2.45;1.60;;;;;;;;;;6301664;22;20074;-78
2023/04/11 12:10:39;;;;;;;1.65;1.55;;;;;;;;;;6301055;22;20003;-78
2023/04/11 12:13:12;;;;;;;3.38;1.60;;;;;;;;;;6304229;22;20018;-78
2023/04/11 12:15:39;;;;;;;1.80;1.48;;;;;;;;;;6304682;22;20082;-78
2023/04/11 12:18:06;;;;;;;1.33;1.20;;;;;;;;;;6299833;22;20011;-78
2023/04/11 12:20:32;;;;;;;1.25;1.25;;;;;;;;;;6305192;22;20049;-78
2023/04/11 12:22:58;;;;;;;1.50;1.30;;;;;;;;;;6308824;22;20032;-78
2023/04/11 12:25:24;;;;;;;1.30;1.30;;;;;;;;;;6304169;22;20015;-79
2023/04/11 12:27:51;;;;;;;1.50;1.40;;;;;;;;;;6309512;22;20030;-79
2023/04/11 12:30:17;;;;;;;1.83;1.52;;;;;;;;;;6305007;22;19996;-77
2023/04/11 12:32:43;;;;;;;3.25;1.60;;;;;;;;;;6303278;22;20014;-78
2023/04/11 12:35:10;;;;;;;1.40;1.30;;;;;;;;;;6309112;22;20011;-79
2023/04/11 12:37:36;;;;;;;2.35;1.73;;;;;;;;;;6302460;22;20602;-79
2023/04/11 12:40:09;;;;;;;2.53;1.80;;;;;;;;;;6302699;22;20010;-78
2023/04/11 12:42:36;;;;;;;3.13;1.70;;;;;;;;;;6303814;22;20010;-78
2023/04/11 12:45:03;;;;;;;1.67;1.52;;;;;;;;;;6299744;22;20395;-78
2023/04/11 12:47:29;;;;;;;1.77;1.48;;;;;;;;;;6303265;22;20003;-79
2023/04/11 12:49:55;;;;;;;7.07;1.90;;;;;;;;;;6307895;22;20005;-78
2023/04/11 12:52:21;;;;;;;4.32;2.05;;;;;;;;;;6304811;22;19996;-79
2023/04/11 12:54:48;;;;;;;2.85;1.80;;;;;;;;;;6303658;22;19999;-78
2023/04/11 12:57:14;;;;;;;2.72;1.73;;;;;;;;;;6303302;22;20026;-78
2023/04/11 12:59:40;;;;;;;2.85;1.85;;;;;;;;;;6304764;22;20027;-78
2023/04/11 13:02:06;;;;;;;1.70;1.60;;;;;;;;;;6300711;22;20003;-78
2023/04/11 13:04:32;;;;;;;3.15;2.28;;;;;;;;;;6302991;22;20425;-77
2023/04/11 13:07:02;;;;;;;2.15;1.58;;;;;;;;;;6297921;22;20045;-79
2023/04/11 13:09:28;;;;;;;1.60;1.50;;;;;;;;;;6300949;22;19999;-78
2023/04/11 13:11:58;;;;;;;2.80;2.00;;;;;;;;;;6300346;22;19999;-77
2023/04/11 13:14:25;;;;;;;2.28;1.67;;;;;;;;;;6303553;22;20098;-79
2023/04/11 13:16:51;;;;;;;1.73;1.55;;;;;;;;;;6300415;22;20017;-78
2023/04/11 13:19:17;;;;;;;2.45;1.65;;;;;;;;;;6299818;22;20078;-78
2023/04/11 13:21:43;;;;;;;2.70;1.85;;;;;;;;;;6297754;22;20061;-79
2023/04/11 13:24:09;;;;;;;1.58;1.35;;;;;;;;;;6295715;22;19999;-78
2023/04/11 13:26:37;;;;;;;1.45;1.35;;;;;;;;;;6300383;22;20271;-77
2023/04/11 13:29:04;;;;;;;2.40;1.80;;;;;;;;;;6307898;22;20003;-77
2023/04/11 13:31:31;;;;;;;1.60;1.45;;;;;;;;;;6299407;22;20453;-78
2023/04/11 13:33:57;;;;;;;1.10;1.10;;;;;;;;;;6297230;22;20442;-78
2023/04/11 13:36:25;;;;;;;2.40;1.73;;;;;;;;;;6298073;22;20003;-78
2023/04/11 13:38:52;;;;;;;1.90;1.80;;;;;;;;;;6301703;22;20007;-78
2023/04/11 13:41:18;;;;;;;1.60;1.50;;;;;;;;;;6295083;22;20068;-78
2023/04/11 13:43:44;;;;;;;5.25;2.13;;;;;;;;;;6299528;22;20078;-78
2023/04/11 13:46:11;;;;;;;3.80;2.65;;;;;;;;;;6306479;22;20007;-78
2023/04/11 13:48:37;;;;;;;4.20;3.30;;;;;;;;;;6305998;22;20326;-78
2023/04/11 13:51:03;;;;;;;5.57;3.03;;;;;;;;;;6306762;22;20006;-79
2023/04/11 13:53:30;;;;;;;4.20;2.88;;;;;;;;;;6304827;22;20010;-78
2023/04/11 13:55:57;;;;;;;5.82;3.08;;;;;;;;;;6307455;22;20002;-78
2023/04/11 13:58:23;;;;;;;4.28;2.80;;;;;;;;;;6305662;22;20007;-79
2023/04/11 14:00:49;;;;;;;3.22;1.92;;;;;;;;;;6306224;22;20007;-78
2023/04/11 14:03:16;;;;;;;1.95;1.80;;;;;;;;;;6301009;22;20002;-78
2023/04/11 14:05:42;;;;;;;1.85;1.73;;;;;;;;;;6306691;22;19999;-79
2023/04/11 14:08:08;;;;;;;1.50;1.40;;;;;;;;;;6303591;22;20003;-78
2023/04/11 14:10:35;;;;;;;3.35;2.30;;;;;;;;;;6304758;22;20327;-78
2023/04/11 14:13:01;;;;;;;5.47;1.88;;;;;;;;;;6305381;22;19999;-78
2023/04/11 14:15:28;;;;;;;1.80;1.50;;;;;;;;;;6308175;22;19995;-80
2023/04/11 14:17:54;;;;;;;2.78;1.90;;;;;;;;;;6303620;22;20019;-78
2023/04/11 14:20:20;;;;;;;1.60;1.50;;;;;;;;;;6309258;22;20078;-79
2023/04/11 14:22:46;;;;;;;1.77;1.60;;;;;;;;;;6307624;22;20037;-78
2023/04/11 14:25:14;;;;;;;2.17;2.08;;;;;;;;;;6301736;22;20003;-78
2023/04/11 14:27:40;;;;;;;1.90;1.55;;;;;;;;;;6301297;22;20035;-78
2023/04/11 14:30:10;;;;;;;1.58;1.48;;;;;;;;;;6301001;22;20007;-78
2023/04/11 14:32:36;;;;;;;2.47;1.40;;;;;;;;;;6300665;22;19999;-78
2023/04/11 14:35:03;;;;;;;1.40;1.30;;;;;;;;;;6298208;22;20061;-78
2023/04/11 14:37:30;;;;;;;1.52;1.38;;;;;;;;;;6300504;22;20008;-77
2023/04/11 14:39:57;;;;;;;1.25;1.25;;;;;;;;;;6301800;22;20011;-79
2023/04/11 14:42:23;;;;;;;2.20;1.30;;;;;;;;;;6304681;22;20087;-78